Time;durP1;ratioP1;P1;durP2;ratioP2;P2;SDS_P1;SDS_P2;PMS_P1;PMS_P2;Temp;Humidity;BMP_temperature;BMP_pressure;BME280_temperature;BME280_humidity;BME280_pressure;Samples;Min_cycle;Max_cycle;Signal;HPM_P1;HPM_P2
2023/09/23 00:00:55;;;;;;;1.60;0.50;;;13.10;99.90;;;;;;5016762;28;20041;-75
2023/09/23 00:03:23;;;;;;;2.08;0.40;;;13.10;99.90;;;;;;5000294;28;20045;-75
2023/09/23 00:05:49;;;;;;;1.15;0.47;;;13.00;99.90;;;;;;5016746;28;20072;-75
2023/09/23 00:08:18;;;;;;;1.98;0.90;;;13.00;99.90;;;;;;5016630;28;20077;-75
2023/09/23 00:10:50;;;;;;;1.42;0.43;;;13.00;99.90;;;;;;5016601;28;20093;-75
2023/09/23 00:13:19;;;;;;;1.95;0.40;;;13.00;99.90;;;;;;5016518;28;20037;-75
2023/09/23 00:15:46;;;;;;;1.30;0.50;;;12.90;99.90;;;;;;5016419;28;20038;-75
2023/09/23 00:18:17;;;;;;;1.38;0.47;;;12.90;99.90;;;;;;5016414;28;20410;-75
2023/09/23 00:20:46;;;;;;;1.98;0.63;;;12.80;99.90;;;;;;5000067;28;20039;-75
2023/09/23 00:23:12;;;;;;;2.28;0.50;;;12.80;99.90;;;;;;5016607;28;20037;-75
2023/09/23 00:25:38;;;;;;;2.50;0.50;;;12.80;99.90;;;;;;5016329;28;20486;-75
2023/09/23 00:28:10;;;;;;;1.88;0.70;;;12.70;99.90;;;;;;5016262;28;20081;-75
2023/09/23 00:30:37;;;;;;;5.45;0.80;;;12.70;99.90;;;;;;5016557;28;20042;-75
2023/09/23 00:33:02;;;;;;;3.28;1.00;;;12.60;99.90;;;;;;5016267;28;20041;-75
2023/09/23 00:35:28;;;;;;;5.15;1.23;;;12.60;99.90;;;;;;5016400;28;20116;-75
2023/09/23 00:37:54;;;;;;;2.15;1.10;;;12.60;99.90;;;;;;5016054;28;20091;-75
2023/09/23 00:40:38;;;;;;;3.05;1.20;;;12.60;99.90;;;;;;5016077;28;20033;-75
2023/09/23 00:43:09;;;;;;;4.63;1.80;;;12.50;99.90;;;;;;5016013;28;20116;-75
2023/09/23 00:45:34;;;;;;;2.50;1.70;;;12.50;99.90;;;;;;5016064;28;20041;-75
2023/09/23 00:48:00;;;;;;;3.72;1.85;;;12.50;99.90;;;;;;4999679;28;20048;-75
2023/09/23 00:50:29;;;;;;;5.25;1.70;;;12.50;99.90;;;;;;5015883;28;20037;-75
2023/09/23 00:52:55;;;;;;;3.30;2.00;;;12.50;99.90;;;;;;4999662;28;20144;-75
2023/09/23 00:55:24;;;;;;;3.72;1.77;;;12.50;99.90;;;;;;5015813;28;20517;-75
2023/09/23 00:57:53;;;;;;;3.83;2.17;;;12.50;99.90;;;;;;5015708;28;20049;-75
2023/09/23 01:00:25;;;;;;;4.45;2.33;;;12.50;99.90;;;;;;5016014;28;20033;-75
2023/09/23 01:02:50;;;;;;;3.08;1.65;;;12.50;99.90;;;;;;5015686;28;20044;-75
2023/09/23 01:05:19;;;;;;;4.25;2.28;;;12.50;99.90;;;;;;5015543;28;20037;-75
2023/09/23 01:07:48;;;;;;;3.38;2.20;;;12.50;99.90;;;;;;5015070;28;20037;-75
2023/09/23 01:10:17;;;;;;;2.75;1.95;;;12.60;99.90;;;;;;4999518;28;20045;-75
2023/09/23 01:12:47;;;;;;;3.40;2.20;;;12.60;99.90;;;;;;4999400;28;20060;-75
2023/09/23 01:15:13;;;;;;;3.90;2.72;;;12.60;99.90;;;;;;5015530;28;20083;-75
2023/09/23 01:17:39;;;;;;;3.00;2.05;;;12.60;99.90;;;;;;5015412;28;20041;-75
2023/09/23 01:20:09;;;;;;;4.00;2.30;;;12.60;99.90;;;;;;4999156;28;20045;-75
2023/09/23 01:22:35;;;;;;;3.17;2.65;;;12.60;99.90;;;;;;5015321;28;20447;-75
2023/09/23 01:25:01;;;;;;;4.32;2.13;;;12.60;99.90;;;;;;5015698;28;20030;-75
2023/09/23 01:27:26;;;;;;;2.67;2.13;;;12.70;99.90;;;;;;5015413;28;20044;-75
2023/09/23 01:29:54;;;;;;;6.70;2.05;;;12.60;99.90;;;;;;5015655;28;20033;-75
2023/09/23 01:32:41;;;;;;;4.65;2.28;;;12.60;99.90;;;;;;4999137;28;20041;-75
2023/09/23 01:35:09;;;;;;;4.05;2.17;;;12.60;99.90;;;;;;5015367;28;20047;-75
2023/09/23 01:37:35;;;;;;;4.10;2.30;;;12.60;99.90;;;;;;5015255;28;20530;-75
2023/09/23 01:40:00;;;;;;;6.00;2.17;;;12.50;99.90;;;;;;5015548;28;20052;-75
2023/09/23 01:42:28;;;;;;;5.25;2.60;;;12.50;99.90;;;;;;5015221;28;20398;-75
2023/09/23 01:44:54;;;;;;;3.35;1.90;;;12.60;99.90;;;;;;5015534;28;20081;-75
2023/09/23 01:47:21;;;;;;;3.13;2.15;;;12.50;99.90;;;;;;5015451;28;20517;-75
2023/09/23 01:49:47;;;;;;;4.45;2.10;;;12.50;99.90;;;;;;5015457;28;20037;-75
2023/09/23 01:52:15;;;;;;;5.28;2.95;;;12.40;99.90;;;;;;5015219;28;20544;-76
2023/09/23 01:54:40;;;;;;;3.88;2.58;;;12.50;99.90;;;;;;5015166;28;20041;-76
2023/09/23 01:57:06;;;;;;;4.60;2.80;;;12.40;99.90;;;;;;4998737;28;20041;-76
2023/09/23 01:59:32;;;;;;;4.07;2.85;;;12.40;99.90;;;;;;5016231;28;20123;-76
2023/09/23 02:01:59;;;;;;;3.78;2.90;;;12.40;99.90;;;;;;4998832;28;20040;-76
2023/09/23 02:04:24;;;;;;;4.00;2.75;;;12.40;99.90;;;;;;5015236;28;20045;-76
2023/09/23 02:06:51;;;;;;;4.93;2.90;;;12.40;99.90;;;;;;5015066;28;20516;-75
2023/09/23 02:09:17;;;;;;;4.80;2.80;;;12.40;99.90;;;;;;4998758;28;20053;-75
2023/09/23 02:11:42;;;;;;;4.18;3.13;;;12.40;99.90;;;;;;5015290;28;20042;-75
2023/09/23 02:14:08;;;;;;;4.45;3.22;;;12.40;99.90;;;;;;5014989;28;20083;-75
2023/09/23 02:16:33;;;;;;;6.40;2.90;;;12.40;99.90;;;;;;5015146;28;20041;-75
2023/09/23 02:19:00;;;;;;;5.00;3.30;;;12.30;99.90;;;;;;5016156;28;20493;-75
2023/09/23 02:21:30;;;;;;;5.00;3.65;;;12.30;99.90;;;;;;5018672;28;20040;-75
2023/09/23 02:23:58;;;;;;;4.25;3.17;;;12.20;99.90;;;;;;5002532;28;20393;-75
2023/09/23 02:26:24;;;;;;;3.75;3.10;;;12.20;99.90;;;;;;5018499;28;20041;-76
2023/09/23 02:28:49;;;;;;;5.95;3.42;;;12.10;99.90;;;;;;5018580;28;20045;-76
2023/09/23 02:31:16;;;;;;;7.43;3.28;;;12.10;99.90;;;;;;5018521;28;20052;-76
2023/09/23 02:33:43;;;;;;;5.68;3.58;;;12.10;99.90;;;;;;5018574;28;20092;-76
2023/09/23 02:36:09;;;;;;;4.78;3.60;;;12.00;99.90;;;;;;5002214;28;20041;-76
2023/09/23 02:38:34;;;;;;;4.20;3.45;;;11.90;99.90;;;;;;5001914;28;20033;-77
2023/09/23 02:41:03;;;;;;;6.18;3.22;;;11.90;99.90;;;;;;5001942;28;20033;-77
2023/09/23 02:43:28;;;;;;;6.82;3.75;;;11.80;99.90;;;;;;5018168;28;20073;-77
2023/09/23 02:46:00;;;;;;;5.25;3.75;;;11.80;99.90;;;;;;5018260;28;20068;-77
2023/09/23 02:48:26;;;;;;;4.47;3.38;;;11.70;99.90;;;;;;5001753;28;20490;-77
2023/09/23 02:50:52;;;;;;;4.97;3.75;;;11.60;99.90;;;;;;5018127;28;20037;-76
2023/09/23 02:53:17;;;;;;;5.68;4.10;;;11.60;99.90;;;;;;5001652;28;20375;-75
2023/09/23 02:55:51;;;;;;;7.03;3.72;;;11.60;99.90;;;;;;5001961;28;20096;-75
2023/09/23 02:58:18;;;;;;;6.68;4.32;;;11.50;99.90;;;;;;5002004;28;20044;-75
2023/09/23 03:00:57;;;;;;;5.38;4.35;;;11.50;99.90;;;;;;5017906;28;20037;-75
2023/09/23 03:03:23;;;;;;;5.45;4.30;;;11.50;99.90;;;;;;5017840;28;20435;-75
2023/09/23 03:05:54;;;;;;;5.18;4.65;;;11.50;99.90;;;;;;5018117;28;20087;-75
2023/09/23 03:08:22;;;;;;;6.20;4.70;;;11.40;99.90;;;;;;5017839;28;20521;-75
2023/09/23 03:10:49;;;;;;;6.75;5.45;;;11.40;99.90;;;;;;5017700;28;20045;-75
2023/09/23 03:13:17;;;;;;;8.27;5.25;;;11.40;99.90;;;;;;5017649;28;20441;-75
2023/09/23 03:15:50;;;;;;;7.28;5.10;;;11.40;99.90;;;;;;5017556;28;20554;-75
2023/09/23 03:18:17;;;;;;;;;;;11.40;99.90;;;;;;5001768;28;20029;-75
2023/09/23 03:20:43;;;;;;;8.45;5.70;;;11.30;99.90;;;;;;5017575;28;19917;-75
2023/09/23 03:23:09;;;;;;;7.18;5.63;;;11.30;99.90;;;;;;5001156;28;20091;-76
2023/09/23 03:25:48;;;;;;;7.75;6.18;;;11.30;99.90;;;;;;5017640;28;20045;-76
2023/09/23 03:28:17;;;;;;;8.52;6.28;;;11.30;99.90;;;;;;5000993;28;20079;-76
2023/09/23 03:30:44;;;;;;;8.43;6.50;;;11.20;99.90;;;;;;5000559;28;20079;-76
2023/09/23 03:33:11;;;;;;;7.22;5.63;;;11.20;99.90;;;;;;5017160;28;20038;-76
2023/09/23 03:35:37;;;;;;;8.85;6.72;;;11.20;99.90;;;;;;5017240;28;20044;-76
2023/09/23 03:38:03;;;;;;;8.27;6.85;;;11.20;99.90;;;;;;5017171;28;20049;-76
2023/09/23 03:40:31;;;;;;;8.25;6.88;;;11.20;99.90;;;;;;5017490;28;20041;-77
2023/09/23 03:43:01;;;;;;;10.73;6.72;;;11.20;99.90;;;;;;5000776;28;20033;-76
2023/09/23 03:45:27;;;;;;;11.45;7.50;;;11.20;99.90;;;;;;5001365;28;20076;-76
2023/09/23 03:47:53;;;;;;;8.60;6.38;;;11.10;99.90;;;;;;5016998;28;20096;-76
2023/09/23 03:50:19;;;;;;;10.73;8.05;;;11.20;99.90;;;;;;5000647;28;20041;-76
2023/09/23 03:52:45;;;;;;;7.47;6.72;;;11.20;99.90;;;;;;5000601;28;20041;-76
2023/09/23 03:55:13;;;;;;;8.38;6.85;;;11.10;99.90;;;;;;5000896;28;20056;-76
2023/09/23 03:57:39;;;;;;;10.50;7.43;;;11.20;99.90;;;;;;5016727;28;20038;-76
2023/09/23 04:00:19;;;;;;;9.45;7.75;;;11.20;99.90;;;;;;5017090;28;20033;-76
2023/09/23 04:02:48;;;;;;;8.75;7.55;;;11.20;99.90;;;;;;5016851;28;20037;-76
2023/09/23 04:05:15;;;;;;;9.38;7.32;;;11.10;99.90;;;;;;5016678;28;20413;-76
2023/09/23 04:07:44;;;;;;;9.60;8.00;;;11.10;99.90;;;;;;5016641;28;20045;-76
2023/09/23 04:10:11;;;;;;;11.25;8.48;;;11.10;99.90;;;;;;5016646;28;20048;-76
2023/09/23 04:12:37;;;;;;;8.70;7.80;;;11.10;99.90;;;;;;5000183;28;20033;-76
2023/09/23 04:15:04;;;;;;;10.38;8.57;;;11.10;99.90;;;;;;5000163;28;20083;-76
2023/09/23 04:17:30;;;;;;;8.82;7.70;;;11.10;99.90;;;;;;5016351;28;20042;-76
2023/09/23 04:19:56;;;;;;;10.10;8.15;;;11.10;99.90;;;;;;5000428;28;20041;-75
2023/09/23 04:22:21;;;;;;;9.63;8.38;;;11.10;99.90;;;;;;5016285;28;20045;-75
2023/09/23 04:24:47;;;;;;;11.77;8.75;;;11.20;99.90;;;;;;5000406;28;20124;-75
2023/09/23 04:27:13;;;;;;;10.52;7.53;;;11.10;99.90;;;;;;5016372;28;20418;-75
2023/09/23 04:29:39;;;;;;;8.82;7.45;;;11.20;99.90;;;;;;5016321;28;20060;-75
2023/09/23 04:32:04;;;;;;;8.32;7.32;;;11.20;99.90;;;;;;5016413;28;20067;-75
2023/09/23 04:34:35;;;;;;;8.38;7.47;;;11.10;99.90;;;;;;5016206;28;20553;-75
2023/09/23 04:37:01;;;;;;;13.35;7.65;;;11.10;99.90;;;;;;4999766;28;20056;-75
2023/09/23 04:39:27;;;;;;;10.77;7.93;;;11.10;99.90;;;;;;4999688;28;20033;-75
2023/09/23 04:41:52;;;;;;;9.57;8.10;;;11.10;99.90;;;;;;5015616;28;20537;-75
2023/09/23 04:44:18;;;;;;;8.15;7.25;;;11.10;99.90;;;;;;5015645;28;20048;-75
2023/09/23 04:46:45;;;;;;;9.55;7.40;;;11.10;99.90;;;;;;5016000;28;20038;-75
2023/09/23 04:49:11;;;;;;;9.65;7.53;;;11.00;99.90;;;;;;5016195;28;20049;-75
2023/09/23 04:51:38;;;;;;;11.95;8.32;;;11.00;99.90;;;;;;4999601;28;20509;-75
2023/09/23 04:54:04;;;;;;;9.93;7.95;;;11.00;99.90;;;;;;5016506;28;20091;-75
2023/09/23 04:56:29;;;;;;;10.73;8.07;;;10.90;99.90;;;;;;5015789;28;20037;-75
2023/09/23 04:58:58;;;;;;;10.60;8.38;;;11.00;99.90;;;;;;5015772;28;20128;-75
2023/09/23 05:01:24;;;;;;;11.57;8.63;;;10.90;99.90;;;;;;5015716;28;20033;-75
2023/09/23 05:03:52;;;;;;;9.63;8.60;;;10.80;99.90;;;;;;4999312;28;20228;-75
2023/09/23 05:06:17;;;;;;;12.43;9.10;;;10.80;99.90;;;;;;5016805;28;20064;-75
2023/09/23 05:08:43;;;;;;;12.95;9.95;;;10.80;99.90;;;;;;5015631;28;20041;-75
2023/09/23 05:11:11;;;;;;;11.90;9.65;;;10.80;99.90;;;;;;4999245;28;20037;-75
2023/09/23 05:13:37;;;;;;;13.68;10.30;;;10.80;99.90;;;;;;4999267;28;20041;-75
2023/09/23 05:16:03;;;;;;;17.00;10.75;;;10.70;99.90;;;;;;5015442;28;20111;-75
2023/09/23 05:18:29;;;;;;;14.57;11.15;;;10.70;99.90;;;;;;5015512;28;20120;-75
2023/09/23 05:20:55;;;;;;;15.10;11.07;;;10.60;99.90;;;;;;5015517;28;20073;-75
2023/09/23 05:23:23;;;;;;;16.25;11.52;;;10.60;99.90;;;;;;5015474;28;20075;-75
2023/09/23 05:25:49;;;;;;;15.52;12.15;;;10.60;99.90;;;;;;5015490;28;20041;-75
2023/09/23 05:28:14;;;;;;;15.07;11.98;;;10.60;99.90;;;;;;5015452;28;20069;-75
2023/09/23 05:30:40;;;;;;;15.23;12.55;;;10.70;99.90;;;;;;5015404;28;20065;-75
2023/09/23 05:33:06;;;;;;;17.23;13.57;;;10.70;99.90;;;;;;4999171;28;20036;-75
2023/09/23 05:35:31;;;;;;;16.27;13.60;;;10.70;99.90;;;;;;5015442;28;20455;-75
2023/09/23 05:37:57;;;;;;;20.63;15.30;;;10.70;99.90;;;;;;4998851;28;20044;-75
2023/09/23 05:42:52;;;;;;;22.17;16.48;;;10.80;99.90;;;;;;5015260;28;20042;-76
2023/09/23 05:45:19;;;;;;;22.23;16.63;;;10.80;99.90;;;;;;5015307;28;20034;-76
2023/09/23 05:47:45;;;;;;;26.80;18.60;;;10.80;99.90;;;;;;4998903;28;20449;-76
2023/09/23 05:50:11;;;;;;;30.30;19.67;;;10.90;99.90;;;;;;4998866;28;20057;-76
2023/09/23 05:52:36;;;;;;;27.80;20.00;;;10.90;99.90;;;;;;4998751;28;20037;-75
2023/09/23 05:55:06;;;;;;;34.22;22.33;;;10.90;99.90;;;;;;5018091;28;20042;-75
2023/09/23 05:57:34;;;;;;;32.28;22.95;;;11.00;99.90;;;;;;5002693;28;20124;-75
2023/09/23 06:00:01;;;;;;;33.08;23.40;;;11.00;99.90;;;;;;5019039;28;20042;-75
2023/09/23 06:02:26;;;;;;;31.77;22.52;;;10.90;99.90;;;;;;5018926;28;20037;-75
2023/09/23 06:04:54;;;;;;;32.53;23.77;;;11.00;99.90;;;;;;5019030;28;20037;-75
2023/09/23 06:07:19;;;;;;;37.47;25.42;;;11.00;99.90;;;;;;5002626;28;20502;-75
2023/09/23 06:09:45;;;;;;;37.10;25.70;;;11.00;99.90;;;;;;5019097;28;20041;-75
2023/09/23 06:12:11;;;;;;;39.83;26.80;;;11.00;99.90;;;;;;5018851;28;20045;-75
2023/09/23 06:14:36;;;;;;;37.60;25.55;;;11.00;99.90;;;;;;5018737;28;20041;-75
2023/09/23 06:17:02;;;;;;;35.72;25.23;;;11.10;99.90;;;;;;5018728;28;20045;-75
2023/09/23 06:19:27;;;;;;;38.35;26.83;;;11.10;99.90;;;;;;5018673;28;20068;-75
2023/09/23 06:21:54;;;;;;;39.72;28.08;;;11.10;99.90;;;;;;5018800;28;20040;-75
2023/09/23 06:24:20;;;;;;;40.50;28.48;;;11.10;99.90;;;;;;5018490;28;20041;-74
2023/09/23 06:26:46;;;;;;;40.50;28.30;;;11.10;99.90;;;;;;5018832;28;20099;-74
2023/09/23 06:29:14;;;;;;;42.30;27.90;;;11.10;99.90;;;;;;5018549;28;20518;-75
2023/09/23 06:31:40;;;;;;;38.78;28.13;;;11.20;99.90;;;;;;5002124;28;20083;-75
2023/09/23 06:34:06;;;;;;;36.67;27.73;;;11.20;99.90;;;;;;5002047;28;20041;-75
2023/09/23 06:36:32;;;;;;;43.35;28.80;;;11.20;99.90;;;;;;5018542;28;20087;-75
2023/09/23 06:38:58;;;;;;;43.50;29.20;;;11.30;99.90;;;;;;5018348;28;20033;-75
2023/09/23 06:41:23;;;;;;;43.67;29.00;;;11.30;99.90;;;;;;5002066;28;20040;-75
2023/09/23 06:43:49;;;;;;;39.20;28.33;;;11.30;99.90;;;;;;5001772;28;20044;-75
2023/09/23 06:46:15;;;;;;;45.45;30.30;;;11.40;99.90;;;;;;5002188;28;20041;-75
2023/09/23 06:48:41;;;;;;;43.60;29.35;;;11.50;99.90;;;;;;5018182;28;20584;-75
2023/09/23 06:51:08;;;;;;;38.70;28.58;;;11.50;99.90;;;;;;5018314;28;20041;-75
2023/09/23 06:53:34;;;;;;;36.35;27.17;;;11.60;99.90;;;;;;5018299;28;20514;-75
2023/09/23 06:56:00;;;;;;;36.90;27.88;;;11.60;99.90;;;;;;5018091;28;20182;-75
2023/09/23 06:58:26;;;;;;;38.83;28.33;;;11.60;99.90;;;;;;5018015;28;20033;-75
2023/09/23 07:00:51;;;;;;;40.00;27.83;;;11.70;99.90;;;;;;5018426;28;20069;-75
2023/09/23 07:03:17;;;;;;;36.45;28.10;;;11.80;99.90;;;;;;5002010;28;20498;-75
2023/09/23 07:05:43;;;;;;;34.78;26.63;;;11.70;99.90;;;;;;5016925;28;20513;-75
2023/09/23 07:08:09;;;;;;;35.47;26.17;;;11.70;99.90;;;;;;5017822;28;20041;-75
2023/09/23 07:10:35;;;;;;;33.63;25.92;;;11.70;99.90;;;;;;5018358;28;20037;-75
2023/09/23 07:13:03;;;;;;;39.65;28.30;;;11.70;99.90;;;;;;5017681;28;20056;-76
2023/09/23 07:15:30;;;;;;;34.72;27.58;;;11.80;99.90;;;;;;5017698;28;20494;-76
2023/09/23 07:17:57;;;;;;;38.83;28.25;;;11.70;99.90;;;;;;5001302;28;20063;-76
2023/09/23 07:20:22;;;;;;;34.95;25.58;;;11.80;99.90;;;;;;5001853;28;20025;-77
2023/09/23 07:22:48;;;;;;;34.25;26.67;;;11.80;99.90;;;;;;5017509;28;20478;-76
2023/09/23 07:25:13;;;;;;;36.65;26.10;;;11.90;99.90;;;;;;5017546;28;20033;-75
2023/09/23 07:27:39;;;;;;;36.17;25.58;;;12.00;99.90;;;;;;5017697;28;20127;-75
2023/09/23 07:30:05;;;;;;;32.00;25.08;;;12.10;99.90;;;;;;5017403;28;20437;-76
2023/09/23 07:32:31;;;;;;;36.30;25.75;;;12.20;99.90;;;;;;5017240;28;20574;-76
2023/09/23 07:34:56;;;;;;;34.17;26.13;;;12.30;99.90;;;;;;5017325;28;20128;-76
2023/09/23 07:37:23;;;;;;;35.15;26.15;;;12.40;99.90;;;;;;5017402;28;20041;-77
2023/09/23 07:39:48;;;;;;;33.63;25.58;;;12.50;99.90;;;;;;5017283;28;20045;-77
2023/09/23 07:42:14;;;;;;;30.65;24.48;;;12.60;99.90;;;;;;5000818;28;20124;-77
2023/09/23 07:44:39;;;;;;;35.58;24.60;;;12.70;99.90;;;;;;5001129;28;20075;-72
2023/09/23 07:47:05;;;;;;;29.00;22.70;;;12.70;99.90;;;;;;5017034;28;20044;-73
2023/09/23 07:49:31;;;;;;;25.58;21.95;;;12.80;99.90;;;;;;5017487;28;20077;-73
2023/09/23 07:51:58;;;;;;;26.50;22.45;;;12.90;99.90;;;;;;5000840;28;20045;-73
2023/09/23 07:54:24;;;;;;;27.67;21.67;;;13.00;99.90;;;;;;5016942;28;20100;-73
2023/09/23 07:56:49;;;;;;;28.38;22.90;;;13.10;99.90;;;;;;5016828;28;20041;-73
2023/09/23 07:59:15;;;;;;;29.00;22.85;;;13.20;99.90;;;;;;5017121;28;20045;-73
2023/09/23 08:01:41;;;;;;;24.20;19.48;;;13.40;99.90;;;;;;5016737;28;20041;-73
2023/09/23 08:04:06;;;;;;;22.17;18.17;;;13.50;99.90;;;;;;5016710;28;20034;-73
2023/09/23 08:06:32;;;;;;;23.02;17.20;;;13.60;99.90;;;;;;5016742;28;20041;-73
2023/09/23 08:08:57;;;;;;;19.67;16.98;;;13.60;99.90;;;;;;5016726;28;20051;-73
2023/09/23 08:11:23;;;;;;;19.48;16.40;;;13.70;99.90;;;;;;5016728;28;20052;-73
2023/09/23 08:13:49;;;;;;;24.02;18.35;;;13.70;99.90;;;;;;5016642;28;20120;-73
2023/09/23 08:16:14;;;;;;;19.67;17.27;;;13.80;99.90;;;;;;5016480;28;20076;-73
2023/09/23 08:18:40;;;;;;;17.67;15.88;;;13.90;99.90;;;;;;5016735;28;20037;-73
2023/09/23 08:21:06;;;;;;;19.92;15.60;;;14.00;99.90;;;;;;5016705;28;20143;-73
2023/09/23 08:23:32;;;;;;;19.58;15.68;;;14.20;99.90;;;;;;5016611;28;20179;-73
2023/09/23 08:25:58;;;;;;;18.85;16.38;;;14.00;99.90;;;;;;5016386;28;20080;-73
2023/09/23 08:28:24;;;;;;;17.45;14.25;;;14.00;99.90;;;;;;5016799;28;20095;-73
2023/09/23 08:30:52;;;;;;;16.50;14.63;;;14.00;99.90;;;;;;5016309;28;20507;-73
2023/09/23 08:33:17;;;;;;;15.90;13.93;;;14.00;99.90;;;;;;5016423;28;20045;-73
2023/09/23 08:35:47;;;;;;;18.20;14.15;;;14.00;99.90;;;;;;5016703;28;20429;-73
2023/09/23 08:38:13;;;;;;;17.15;14.15;;;14.10;99.90;;;;;;5016109;28;20422;-73
2023/09/23 08:40:39;;;;;;;15.65;13.35;;;14.20;99.90;;;;;;5016160;28;20588;-73
2023/09/23 08:43:06;;;;;;;14.75;13.13;;;14.10;99.90;;;;;;5016003;28;20124;-74
2023/09/23 08:45:32;;;;;;;16.17;13.63;;;14.00;99.90;;;;;;5016201;28;20083;-75
2023/09/23 08:47:58;;;;;;;18.17;14.10;;;14.00;99.90;;;;;;5015894;28;20050;-75
2023/09/23 08:50:25;;;;;;;21.77;14.73;;;14.00;99.90;;;;;;4999542;28;20037;-75
2023/09/23 08:52:52;;;;;;;15.88;14.15;;;14.40;99.90;;;;;;5015779;28;20077;-74
2023/09/23 08:55:18;;;;;;;14.25;12.75;;;14.70;99.90;;;;;;5016137;28;20091;-74
2023/09/23 08:57:44;;;;;;;20.38;12.43;;;15.40;99.90;;;;;;4999369;28;20502;-74
2023/09/23 09:00:13;;;;;;;14.88;12.00;;;15.80;99.90;;;;;;5015711;28;20075;-74
2023/09/23 09:02:38;;;;;;;12.32;11.02;;;15.80;99.90;;;;;;5015663;28;20471;-74
2023/09/23 09:05:04;;;;;;;13.55;10.73;;;15.70;99.90;;;;;;5015654;28;20068;-74
2023/09/23 09:07:38;;;;;;;11.82;10.50;;;15.60;99.90;;;;;;5015687;28;20045;-74
2023/09/23 09:10:05;;;;;;;11.43;9.90;;;15.90;99.90;;;;;;4999334;28;20047;-74
2023/09/23 09:12:31;;;;;;;11.73;10.45;;;16.50;99.90;;;;;;5015975;28;20076;-74
2023/09/23 09:14:57;;;;;;;10.27;8.63;;;16.80;99.90;;;;;;5015576;28;20052;-75
2023/09/23 09:17:22;;;;;;;13.10;8.50;;;16.60;99.90;;;;;;4999096;28;20041;-74
2023/09/23 09:19:49;;;;;;;13.25;9.43;;;16.20;99.90;;;;;;5015535;28;20042;-74
2023/09/23 09:22:16;;;;;;;12.52;9.52;;;16.10;99.90;;;;;;5015320;28;20037;-75
2023/09/23 09:24:42;;;;;;;11.82;9.43;;;16.00;99.90;;;;;;5015742;28;20049;-75
2023/09/23 09:27:12;;;;;;;12.55;8.48;;;16.00;99.90;;;;;;5015403;28;20045;-75
2023/09/23 09:29:38;;;;;;;11.07;8.43;;;15.80;99.90;;;;;;5015206;28;20049;-75
2023/09/23 09:32:08;;;;;;;10.52;8.00;;;15.60;99.90;;;;;;5015548;28;20155;-75
2023/09/23 09:34:45;;;;;;;10.68;7.85;;;15.30;99.90;;;;;;4999049;28;20045;-74
2023/09/23 09:37:13;;;;;;;11.15;8.90;;;15.10;99.90;;;;;;4999084;28;20172;-74
2023/09/23 09:39:48;;;;;;;9.93;7.80;;;14.90;99.90;;;;;;5015273;28;20048;-74
2023/09/23 09:42:20;;;;;;;11.20;8.05;;;15.50;99.90;;;;;;5015315;28;20045;-74
2023/09/23 09:44:46;;;;;;;9.25;6.68;;;16.30;99.90;;;;;;4998964;28;20040;-74
2023/09/23 09:47:13;;;;;;;11.50;7.55;;;16.90;99.90;;;;;;5015548;28;20041;-74
2023/09/23 09:49:41;;;;;;;9.60;6.85;;;17.10;99.90;;;;;;5015191;28;20582;-74
2023/09/23 09:52:08;;;;;;;7.03;5.93;;;17.30;99.90;;;;;;4998840;28;20048;-74
2023/09/23 09:54:36;;;;;;;7.80;6.28;;;17.50;99.90;;;;;;5015291;28;20441;-74
2023/09/23 09:57:02;;;;;;;7.63;5.25;;;17.50;99.90;;;;;;4998753;28;20095;-74
2023/09/23 09:59:32;;;;;;;10.13;5.68;;;17.20;99.90;;;;;;5015202;28;20121;-74
2023/09/23 10:01:59;;;;;;;10.98;6.28;;;17.00;99.90;;;;;;4998998;28;20029;-74
2023/09/23 10:04:32;;;;;;;14.05;5.95;;;16.60;99.90;;;;;;4998992;28;20517;-74
2023/09/23 10:06:58;;;;;;;6.20;4.70;;;16.30;99.90;;;;;;4998678;28;20042;-74
2023/09/23 10:09:31;;;;;;;10.98;4.60;;;16.10;99.90;;;;;;5015334;28;20108;-74
2023/09/23 10:11:58;;;;;;;9.40;5.00;;;16.10;99.90;;;;;;5015040;28;20083;-74
2023/09/23 10:14:24;;;;;;;6.63;4.50;;;16.10;99.90;;;;;;5014914;28;20045;-73
2023/09/23 10:16:52;;;;;;;7.05;4.43;;;16.00;99.90;;;;;;5014913;28;20076;-73
2023/09/23 10:19:28;;;;;;;7.20;4.20;;;15.90;99.90;;;;;;5014938;28;20042;-73
2023/09/23 10:22:19;;;;;;;8.60;3.67;;;16.00;99.90;;;;;;5014997;28;20121;-74
2023/09/23 10:24:46;;;;;;;7.38;3.58;;;16.00;99.90;;;;;;4998498;28;20502;-74
2023/09/23 10:27:13;;;;;;;7.80;3.65;;;16.00;99.90;;;;;;5014848;28;20513;-74
2023/09/23 10:29:47;;;;;;;6.93;3.70;;;16.20;99.90;;;;;;5014878;28;20048;-74
2023/09/23 10:32:14;;;;;;;6.90;2.92;;;16.20;99.90;;;;;;5014800;28;20088;-74
2023/09/23 10:34:47;;;;;;;8.30;3.30;;;16.20;99.90;;;;;;4998550;28;20042;-74
2023/09/23 10:37:23;;;;;;;7.55;2.97;;;16.20;99.90;;;;;;4998302;28;20046;-74
2023/09/23 10:39:48;;;;;;;5.70;2.83;;;16.20;99.90;;;;;;5014815;28;20088;-74
2023/09/23 10:42:14;;;;;;;5.65;2.30;;;16.30;99.90;;;;;;5001519;28;20041;-74
2023/09/23 10:44:40;;;;;;;10.10;2.90;;;16.20;99.90;;;;;;5018508;28;20033;-74
2023/09/23 10:47:05;;;;;;;6.03;2.08;;;16.20;99.90;;;;;;5001868;28;20479;-73
2023/09/23 10:49:31;;;;;;;6.38;2.28;;;16.20;99.90;;;;;;5002130;28;20132;-73
2023/09/23 10:51:57;;;;;;;5.80;2.00;;;16.20;99.90;;;;;;5018191;28;20457;-73
2023/09/23 10:54:24;;;;;;;5.55;2.00;;;16.00;99.90;;;;;;5018058;28;20038;-73
2023/09/23 10:56:51;;;;;;;4.10;1.77;;;16.00;99.90;;;;;;5017953;28;20151;-73
2023/09/23 10:59:17;;;;;;;6.65;2.58;;;16.00;99.90;;;;;;5017984;28;20081;-73
2023/09/23 11:01:45;;;;;;;6.22;2.42;;;16.00;99.90;;;;;;5017966;28;20092;-73
2023/09/23 11:04:11;;;;;;;5.85;1.65;;;16.10;99.90;;;;;;5017902;28;20052;-73
2023/09/23 11:06:37;;;;;;;7.03;1.80;;;16.20;99.90;;;;;;5018119;28;20123;-73
2023/09/23 11:09:05;;;;;;;4.95;1.73;;;16.30;99.90;;;;;;5001540;28;20046;-73
2023/09/23 11:11:36;;;;;;;8.00;1.80;;;16.60;99.90;;;;;;5018083;28;20049;-73
2023/09/23 11:14:02;;;;;;;3.67;1.40;;;16.90;99.90;;;;;;5001356;28;20041;-73
2023/09/23 11:16:28;;;;;;;6.13;1.92;;;17.00;99.90;;;;;;5017587;28;20073;-73
2023/09/23 11:18:55;;;;;;;5.68;1.85;;;17.00;99.90;;;;;;5017930;28;20120;-73
2023/09/23 11:21:21;;;;;;;5.72;1.60;;;17.10;99.90;;;;;;5017667;28;20037;-73
2023/09/23 11:23:56;;;;;;;6.43;2.03;;;17.10;99.90;;;;;;5018107;28;20056;-73
2023/09/23 11:26:23;;;;;;;5.05;1.98;;;17.00;99.90;;;;;;5017983;28;20128;-73
2023/09/23 11:28:48;;;;;;;5.65;1.58;;;16.80;99.90;;;;;;5017395;28;20037;-73
2023/09/23 11:31:14;;;;;;;6.88;1.95;;;16.70;99.90;;;;;;5017448;28;20040;-73
2023/09/23 11:33:39;;;;;;;5.85;1.70;;;16.70;99.90;;;;;;5000932;28;20117;-73
2023/09/23 11:36:05;;;;;;;3.00;1.15;;;16.90;99.90;;;;;;5017480;28;20045;-73
2023/09/23 11:38:30;;;;;;;5.13;1.52;;;16.80;99.90;;;;;;5017468;28;20479;-73
2023/09/23 11:40:56;;;;;;;6.03;1.52;;;16.70;99.90;;;;;;5000941;28;20449;-73
2023/09/23 11:43:22;;;;;;;6.05;1.30;;;16.60;99.90;;;;;;5017120;28;20049;-73
2023/09/23 11:45:48;;;;;;;4.65;1.63;;;16.80;99.90;;;;;;5017193;28;20120;-74
2023/09/23 11:48:14;;;;;;;6.40;1.80;;;17.10;99.90;;;;;;5017094;28;20414;-74
2023/09/23 11:50:39;;;;;;;3.58;1.13;;;17.50;99.90;;;;;;5017069;28;20050;-74
2023/09/23 11:53:05;;;;;;;4.88;1.50;;;17.90;99.90;;;;;;5016547;28;20076;-74
2023/09/23 11:55:32;;;;;;;5.30;1.33;;;18.10;99.90;;;;;;5000613;28;20048;-74
2023/09/23 11:57:59;;;;;;;3.38;1.00;;;18.50;99.90;;;;;;5016814;28;20049;-74
2023/09/23 12:00:25;;;;;;;5.93;1.35;;;18.60;99.90;;;;;;5016850;28;20044;-74
2023/09/23 12:02:51;;;;;;;4.25;1.05;;;18.80;99.90;;;;;;5016758;28;20132;-74
2023/09/23 12:05:16;;;;;;;3.35;1.15;;;18.80;99.90;;;;;;5017047;28;20095;-74
2023/09/23 12:07:43;;;;;;;2.90;0.80;;;18.90;99.90;;;;;;5016573;28;20051;-74
2023/09/23 12:10:09;;;;;;;3.33;1.20;;;19.10;99.90;;;;;;5016639;28;20079;-74
2023/09/23 12:12:36;;;;;;;6.35;1.30;;;19.10;99.90;;;;;;5000525;28;20040;-74
2023/09/23 12:15:02;;;;;;;3.63;0.95;;;19.00;99.90;;;;;;5016521;28;20049;-74
2023/09/23 12:17:28;;;;;;;3.90;1.02;;;18.70;99.90;;;;;;5000233;28;20129;-75
2023/09/23 12:19:53;;;;;;;3.63;0.90;;;18.40;99.90;;;;;;5000307;28;20120;-75
2023/09/23 12:22:20;;;;;;;3.45;1.00;;;18.20;99.90;;;;;;5016664;28;20037;-74
2023/09/23 12:24:46;;;;;;;4.28;0.98;;;18.00;99.90;;;;;;5016776;28;20049;-75
2023/09/23 12:27:12;;;;;;;3.22;1.00;;;17.80;99.90;;;;;;5016332;28;20083;-75
2023/09/23 12:29:38;;;;;;;6.65;1.02;;;17.60;99.90;;;;;;5016366;28;20556;-74
2023/09/23 12:32:07;;;;;;;4.72;1.27;;;17.40;99.90;;;;;;5016187;28;20042;-74
2023/09/23 12:34:33;;;;;;;6.40;1.40;;;17.10;99.90;;;;;;5016448;28;20077;-74
2023/09/23 12:36:58;;;;;;;7.25;1.40;;;16.90;99.90;;;;;;5016149;28;20514;-74
2023/09/23 12:39:24;;;;;;;5.32;1.15;;;16.90;99.90;;;;;;5016437;28;20041;-74
2023/09/23 12:41:51;;;;;;;3.45;1.10;;;17.20;99.90;;;;;;5016097;28;20041;-74